Terminal Aerodrome Forecast
Issued by NWS

Home | Current Version | Previous Version | Graphics & Text | Print | Product List | Glossary On
Versions: 1 2 3 4 5 6 7 8 9 10 11 12 13 14 15 16 17 18 19 20 21 22 23 24 25 26
451
FTUS45 KGGW 272320
TAFOLF
TAF
KOLF 272320Z 2800/2824 29012G20KT P6SM SKC
     FM280300 VRB06KT P6SM SKC
     FM280500 36012KT P6SM SKC
     FM282100 09009KT P6SM SCT200=

USA.gov is the U.S. government's official web portal to all federal, state and local government web resources and services.